Tuscaloosa Regional Airport
KTCL : rendu visible

Aérodrome :











RETROUVEZ-NOUS SUR...

 
LOGIN :

S'inscrire | Disclaimer

   EN    FR    IT 

 









Légende :    VFR   VFR Marginal   IFR   IFR Intensif   IFR Très Intensif
Visi : 
Plafond : 
>= 8 km
>= 3000ft
5 à 8 km
1000 à 3000 ft
1500m à 5 km
500 à 1000 ft
800 à 1500m
200 à 500 ft
< 800m
< 200 ft
Symboles :   Orages  Brouillard  Fortes neiges  Fortes précipitations  Vent > 20 kt






- Altitude de l'aérodrome : 170 ft
- Code IATA : TCL


KTCL - Tuscaloosa Regional

DERNIER METAR :
  • 171753Z 14007KT 10SM FEW110 18/M02 A3042 RMK AO2 SLP299 T01781022 10178 20094 58025

METARs EXPIRÉS :
  • 171653Z VRB05KT 10SM CLR 16/M01 A3047 RMK AO2 SLP316 T01561011
  • 171553Z 07006KT 10SM FEW110 13/M02 A3049 RMK AO2 SLP324 T01281017
  • 171453Z 05009KT 10SM SCT110 11/M02 A3049 RMK AO2 SLP325 T01111017 51005

TAF KTCL
Valide du 17 à 18h jusqu'au 18 à 18h UTC


171720Z 1718/1818 09008KT P6SM SCT120
FM180500 14010G18KT P6SM OVC050
FM181100 14009KT P6SM OVC025
FM181400 15009KT 6SM -SHRA OVC015



MET'MAP, la Météo Aéronautique d'un coup d'oeil ! - Copyright ORBIFLY Décembre 2007 - Disclaimer

ORBIFLY MET'MAP TEAM :

Programmation & Développement : Alexandra Zaïnal
Sur une idée originale de : Baudouin d'Aumeries
Assistance à la programmation : Marc-Olivier Méhu
Soutien technique & logistique : Manuel Goepfert

Contact : metmap@orbifly.com




SOURCES & CREDITS :

   NOAA       Earth
Advisory